Time;durP1;ratioP1;P1;durP2;ratioP2;P2;SDS_P1;SDS_P2;PMS_P1;PMS_P2;Temp;Humidity;BMP_temperature;BMP_pressure;BME280_temperature;BME280_humidity;BME280_pressure;Samples;Min_cycle;Max_cycle;Signal;HPM_P1;HPM_P2
2021/04/23 00:00:23;;;;;;;6.20;3.23;;;;;;;6.87;51.77;153125.28;5081225;28;20474;-82
2021/04/23 00:03:01;;;;;;;5.30;2.80;;;;;;;6.83;51.90;153114.94;5095327;28;20842;-82
2021/04/23 00:05:36;;;;;;;7.17;3.50;;;;;;;6.77;52.56;153098.19;5129776;27;20869;-82
2021/04/23 00:08:12;;;;;;;4.07;2.60;;;;;;;6.67;53.88;153073.66;5124400;27;20438;-82
2021/04/23 00:10:47;;;;;;;7.30;2.97;;;;;;;6.57;53.58;153047.81;5129695;27;20438;-82
2021/04/23 00:13:23;;;;;;;3.80;2.80;;;;;;;6.46;54.21;153019.47;5129632;27;20430;-82
2021/04/23 00:15:57;;;;;;;4.27;3.00;;;;;;;6.46;54.28;153019.47;5129563;27;20450;-83
2021/04/23 00:18:34;;;;;;;4.70;2.27;;;;;;;6.48;53.97;153024.63;5124329;27;20475;-82
2021/04/23 00:21:10;;;;;;;3.70;2.40;;;;;;;6.36;54.49;152993.63;5108862;28;20447;-82
2021/04/23 00:23:46;;;;;;;5.50;2.13;;;;;;;6.35;54.35;152992.38;5108828;28;20437;-82
2021/04/23 00:26:21;;;;;;;4.27;2.77;;;;;;;6.32;53.91;152983.31;5074237;28;20474;-82
2021/04/23 00:28:56;;;;;;;3.90;2.60;;;;;;;6.52;53.68;153036.22;5116659;27;20972;-82
2021/04/23 00:31:31;;;;;;;4.57;2.83;;;;;;;6.56;54.76;153045.25;5075865;28;20442;-82
2021/04/23 00:34:07;;;;;;;8.43;3.70;;;;;;;6.47;53.11;153023.31;5120867;27;20451;-82
2021/04/23 00:36:42;;;;;;;3.40;2.63;;;;;;;6.41;53.30;153006.53;5108650;28;20466;-82
2021/04/23 00:39:18;;;;;;;4.47;3.00;;;;;;;6.43;53.12;153011.72;5059213;28;20424;-82
2021/04/23 00:41:53;;;;;;;4.10;2.40;;;;;;;6.36;53.20;152993.63;5074716;28;20809;-82
2021/04/23 00:44:28;;;;;;;5.47;3.13;;;;;;;6.32;52.84;152983.31;5082182;28;20466;-82
2021/04/23 00:47:04;;;;;;;2.80;2.50;;;;;;;6.30;53.00;152978.16;5128939;27;20450;-82
2021/04/23 00:49:39;;;;;;;4.57;3.30;;;;;;;6.27;52.62;152970.41;5129060;27;20470;-82
2021/04/23 00:52:15;;;;;;;3.67;3.10;;;;;;;6.21;53.70;152954.94;5112785;27;20446;-82
2021/04/23 00:54:50;;;;;;;5.70;3.23;;;;;;;6.21;53.31;152954.94;5092731;28;20454;-82
2021/04/23 00:57:25;;;;;;;9.73;3.30;;;;;;;6.21;53.33;152954.94;5108263;28;20450;-82
2021/04/23 01:00:01;;;;;;;5.10;3.40;;;;;;;6.29;53.63;152975.56;5076257;28;20458;-82
2021/04/23 01:02:36;;;;;;;5.37;3.07;;;;;;;6.28;53.17;152972.97;5116707;27;20470;-82
2021/04/23 01:05:14;;;;;;;2.70;2.27;;;;;;;6.24;52.34;152962.66;5115710;27;20450;-82
2021/04/23 01:07:50;;;;;;;3.77;2.80;;;;;;;6.19;52.96;152949.78;5078929;28;20789;-82
2021/04/23 01:10:26;;;;;;;5.70;2.57;;;;;;;6.21;52.60;152956.22;5128768;27;20478;-83
2021/04/23 01:13:01;;;;;;;7.50;3.30;;;;;;;6.34;52.09;152988.47;5128319;27;20952;-82
2021/04/23 01:15:36;;;;;;;4.70;2.77;;;;;;;6.43;51.98;153011.72;5128381;27;20454;-82
2021/04/23 01:18:12;;;;;;;4.37;3.50;;;;;;;6.54;50.45;153041.38;5078631;28;20434;-82
2021/04/23 01:20:48;;;;;;;3.60;2.63;;;;;;;6.52;50.98;153034.91;5128315;27;20851;-82
2021/04/23 01:23:24;;;;;;;4.97;3.10;;;;;;;6.49;51.63;153028.47;5091916;28;20536;-82
2021/04/23 01:26:00;;;;;;;7.90;4.40;;;;;;;6.48;51.40;153024.63;5075675;28;20466;-82
2021/04/23 01:28:35;;;;;;;6.10;3.80;;;;;;;6.41;52.04;153006.53;5073735;28;20430;-82
2021/04/23 01:31:13;;;;;;;6.33;3.80;;;;;;;6.40;52.74;153003.97;5074733;28;20450;-82
2021/04/23 01:33:50;;;;;;;5.60;4.10;;;;;;;6.38;53.08;152998.81;5078427;28;20528;-81
2021/04/23 01:36:26;;;;;;;8.70;4.57;;;;;;;6.37;52.74;152996.22;5127579;27;20850;-82
2021/04/23 01:39:05;;;;;;;5.53;3.60;;;;;;;6.35;52.73;152991.06;5120600;27;20918;-82
2021/04/23 01:41:41;;;;;;;6.37;4.40;;;;;;;6.33;52.72;152985.91;5074905;28;20453;-82
2021/04/23 01:44:16;;;;;;;7.70;3.53;;;;;;;6.30;53.27;152978.16;5076291;28;20498;-81
2021/04/23 01:46:52;;;;;;;5.67;4.10;;;;;;;6.26;53.24;152969.13;5077304;28;20411;-82
2021/04/23 01:49:27;;;;;;;5.50;4.03;;;;;;;6.23;53.04;152960.06;5110036;28;20507;-82
2021/04/23 01:52:06;;;;;;;5.60;3.47;;;;;;;6.23;53.05;152960.06;5126670;27;20535;-82
2021/04/23 01:54:42;;;;;;;4.33;3.47;;;;;;;6.17;53.12;152944.63;5127640;27;20477;-82
2021/04/23 01:57:18;;;;;;;8.00;3.80;;;;;;;6.20;52.68;152952.31;5094742;28;20422;-82
2021/04/23 01:59:53;;;;;;;5.13;3.60;;;;;;;6.23;52.80;152960.06;5077902;28;20823;-82
2021/04/23 02:02:28;;;;;;;8.33;4.00;;;;;;;6.18;53.01;152947.19;5076203;28;20447;-82
2021/04/23 02:05:05;;;;;;;5.40;3.47;;;;;;;6.21;52.27;152956.22;5074421;28;20883;-82
2021/04/23 02:07:40;;;;;;;5.00;3.00;;;;;;;6.14;53.34;152939.44;5107058;28;20438;-82
2021/04/23 02:10:18;;;;;;;4.73;3.50;;;;;;;6.11;53.64;152930.44;5084772;28;20863;-82
2021/04/23 02:12:53;;;;;;;7.93;3.40;;;;;;;6.07;52.87;152921.38;5094485;28;20406;-82
2021/04/23 02:15:29;;;;;;;5.83;3.87;;;;;;;6.04;53.87;152913.63;5094457;28;20465;-82
2021/04/23 02:18:05;;;;;;;6.10;3.70;;;;;;;6.00;54.17;152903.34;5126101;27;20494;-82
2021/04/23 02:20:41;;;;;;;5.90;3.60;;;;;;;5.85;54.28;152864.63;5081325;28;20937;-82
2021/04/23 02:23:18;;;;;;;4.43;3.43;;;;;;;5.82;55.22;152856.88;5080539;28;20442;-82
2021/04/23 02:25:55;;;;;;;5.33;2.77;;;;;;;5.81;55.52;152854.28;5107644;28;20954;-82
2021/04/23 02:28:30;;;;;;;8.03;3.10;;;;;;;5.79;54.93;152847.81;5077193;28;20442;-82
2021/04/23 02:31:06;;;;;;;4.77;4.00;;;;;;;5.88;53.56;152871.06;5126604;27;20442;-82
2021/04/23 02:33:43;;;;;;;6.67;4.20;;;;;;;5.88;55.01;152872.34;5092705;28;20413;-82
2021/04/23 02:36:18;;;;;;;7.70;3.23;;;;;;;5.77;54.76;152843.94;5126519;27;20441;-82
2021/04/23 02:38:54;;;;;;;4.80;3.40;;;;;;;5.75;55.20;152838.78;5056850;28;20951;-82
2021/04/23 02:41:30;;;;;;;5.60;3.87;;;;;;;5.69;55.29;152822.03;5087693;28;20442;-82
2021/04/23 02:44:06;;;;;;;5.00;3.30;;;;;;;5.60;55.02;152800.09;5106103;28;20474;-82
2021/04/23 02:46:42;;;;;;;5.43;3.30;;;;;;;5.58;56.23;152793.66;5106128;28;20482;-82
2021/04/23 02:49:17;;;;;;;4.43;3.20;;;;;;;5.51;56.76;152776.88;5121469;27;20478;-82
2021/04/23 02:51:52;;;;;;;7.30;3.07;;;;;;;5.48;56.80;152770.44;5126738;27;20438;-82
2021/04/23 02:54:27;;;;;;;9.10;3.87;;;;;;;5.48;57.24;152769.19;5116647;27;20442;-82
2021/04/23 02:57:04;;;;;;;6.03;3.20;;;;;;;5.44;57.42;152758.84;5069872;28;20484;-82
2021/04/23 02:59:41;;;;;;;4.57;3.60;;;;;;;5.41;56.82;152751.09;5083495;28;20443;-82
2021/04/23 03:02:16;;;;;;;6.90;3.30;;;;;;;5.35;56.38;152735.63;5076644;28;20453;-82
2021/04/23 03:04:51;;;;;;;5.33;3.90;;;;;;;5.26;57.22;152712.44;5087434;28;20431;-82
2021/04/23 03:07:26;;;;;;;5.47;3.63;;;;;;;5.23;58.53;152706.00;5072008;28;20533;-82
2021/04/23 03:10:02;;;;;;;5.80;3.30;;;;;;;5.18;58.20;152693.09;5087684;28;20470;-82
2021/04/23 03:12:38;;;;;;;6.83;3.57;;;;;;;5.08;57.60;152666.03;5072399;28;20528;-82
2021/04/23 03:15:14;;;;;;;4.87;3.50;;;;;;;5.04;57.87;152655.69;5078979;28;20452;-82
2021/04/23 03:17:50;;;;;;;5.43;3.60;;;;;;;4.86;58.84;152611.91;5077237;28;20949;-82
2021/04/23 03:20:26;;;;;;;5.80;3.97;;;;;;;4.82;58.54;152601.56;5105557;28;20446;-82
2021/04/23 03:23:01;;;;;;;6.10;3.70;;;;;;;4.72;60.10;152575.81;5090255;28;20425;-82
2021/04/23 03:25:37;;;;;;;4.90;3.17;;;;;;;4.71;60.01;152573.22;5126350;28;20469;-82
2021/04/23 03:28:13;;;;;;;4.67;3.40;;;;;;;4.67;59.35;152561.63;5076915;28;20595;-82
2021/04/23 03:30:49;;;;;;;5.53;3.63;;;;;;;4.63;59.49;152552.59;5114757;28;20976;-82
2021/04/23 03:33:24;;;;;;;5.90;3.37;;;;;;;4.58;60.58;152538.47;5071752;28;20438;-82
2021/04/23 03:36:00;;;;;;;7.43;4.33;;;;;;;4.54;61.27;152528.13;5106057;28;20446;-82
2021/04/23 03:38:37;;;;;;;5.13;3.63;;;;;;;4.47;61.56;152511.41;5102407;28;20536;-82
2021/04/23 03:41:15;;;;;;;7.40;3.77;;;;;;;4.37;61.67;152485.63;5107823;28;20450;-82
2021/04/23 03:43:51;;;;;;;4.33;2.93;;;;;;;4.32;62.17;152472.75;5105479;28;20486;-82
2021/04/23 03:46:27;;;;;;;5.47;3.47;;;;;;;4.31;62.41;152470.19;5071667;28;20438;-82
2021/04/23 03:49:02;;;;;;;4.33;3.33;;;;;;;4.30;63.04;152467.59;5071370;28;20549;-82
2021/04/23 03:51:37;;;;;;;5.53;3.23;;;;;;;4.24;63.06;152452.13;5071887;28;20438;-82
2021/04/23 03:54:12;;;;;;;5.80;3.70;;;;;;;4.18;63.26;152437.97;5111120;28;20489;-82
2021/04/23 03:56:47;;;;;;;6.10;3.93;;;;;;;4.08;63.36;152412.22;5126139;28;20535;-82
2021/04/23 03:59:24;;;;;;;5.20;4.00;;;;;;;3.98;63.69;152385.16;5077100;28;20434;-82
2021/04/23 04:02:02;;;;;;;5.20;4.20;;;;;;;3.96;64.12;152381.31;5096730;28;20895;-82
2021/04/23 04:04:36;;;;;;;4.90;3.80;;;;;;;3.91;64.48;152368.47;5124994;27;20897;-82
2021/04/23 04:07:12;;;;;;;8.07;3.80;;;;;;;3.88;64.26;152359.44;5109050;28;20426;-82
2021/04/23 04:09:47;;;;;;;6.07;4.00;;;;;;;3.88;63.20;152360.72;5076339;28;20501;-82
2021/04/23 04:12:22;;;;;;;8.23;4.40;;;;;;;3.89;63.87;152362.00;5109004;28;20781;-82
2021/04/23 04:15:02;;;;;;;7.73;4.30;;;;;;;3.88;63.25;152360.72;5093533;28;20444;-81
2021/04/23 04:17:37;;;;;;;10.70;4.77;;;;;;;3.89;62.93;152362.00;5096679;28;20410;-82
2021/04/23 04:20:14;;;;;;;5.57;4.10;;;;;;;3.91;62.49;152368.47;5096452;28;20444;-82
2021/04/23 04:22:50;;;;;;;6.80;3.63;;;;;;;3.91;63.38;152367.16;5096549;28;20786;-82
2021/04/23 04:25:31;;;;;;;5.97;3.47;;;;;;;3.94;64.97;152376.19;5111999;27;20454;-82
2021/04/23 04:28:07;;;;;;;13.87;4.40;;;;;;;4.00;64.79;152390.31;5084251;28;20456;-82
2021/04/23 04:30:44;;;;;;;3.63;3.07;;;;;;;4.00;63.76;152390.31;5089849;28;20489;-82
2021/04/23 04:33:20;;;;;;;6.07;3.27;;;;;;;3.95;63.72;152377.44;5086851;28;20430;-82
2021/04/23 04:35:55;;;;;;;7.83;4.80;;;;;;;3.93;63.34;152372.28;5074886;28;20434;-82
2021/04/23 04:38:30;;;;;;;10.50;3.67;;;;;;;3.88;62.99;152359.44;5079272;28;20445;-82
2021/04/23 04:41:05;;;;;;;5.80;3.83;;;;;;;3.90;63.24;152364.56;5077868;28;20452;-81
2021/04/23 04:43:41;;;;;;;8.13;3.60;;;;;;;3.93;63.08;152372.28;5128968;27;20461;-82
2021/04/23 04:46:17;;;;;;;5.53;3.50;;;;;;;3.98;63.47;152386.47;5128933;27;20480;-81
2021/04/23 04:48:52;;;;;;;6.17;3.93;;;;;;;4.06;63.87;152405.78;5074795;28;20448;-82
2021/04/23 04:51:27;;;;;;;7.50;3.90;;;;;;;4.19;63.38;152439.25;5124821;27;20535;-82
2021/04/23 04:54:04;;;;;;;5.70;3.63;;;;;;;4.27;63.67;152459.88;5094710;28;20448;-82
2021/04/23 04:56:39;;;;;;;5.07;3.70;;;;;;;4.32;63.39;152472.75;5083326;28;20442;-82
2021/04/23 04:59:13;;;;;;;10.30;5.00;;;;;;;4.34;63.13;152477.94;5108353;28;20794;-82
2021/04/23 05:01:50;;;;;;;6.23;4.60;;;;;;;4.42;63.62;152497.25;5126835;27;20445;-82
2021/04/23 05:04:25;;;;;;;10.43;5.50;;;;;;;4.46;63.50;152508.81;5092418;28;20956;-82
2021/04/23 05:07:00;;;;;;;7.70;6.30;;;;;;;4.45;63.17;152506.22;5094235;28;20438;-82
2021/04/23 05:09:35;;;;;;;5.23;4.10;;;;;;;4.54;62.90;152529.44;5095373;28;20468;-82
2021/04/23 05:12:10;;;;;;;3.67;3.13;;;;;;;4.49;62.79;152516.56;5107375;28;20449;-81
2021/04/23 05:14:45;;;;;;;9.40;4.40;;;;;;;4.61;62.23;152546.16;5124919;27;20444;-81
2021/04/23 05:17:22;;;;;;;6.97;4.60;;;;;;;4.58;62.45;152539.72;5095808;28;20456;-82
2021/04/23 05:19:57;;;;;;;6.13;3.87;;;;;;;4.69;62.99;152566.78;5094238;28;20912;-82
2021/04/23 05:22:32;;;;;;;5.27;4.20;;;;;;;4.93;62.32;152629.94;5073986;28;20470;-81
2021/04/23 05:25:10;;;;;;;9.63;3.97;;;;;;;5.29;62.37;152720.19;5082629;28;20843;-81
2021/04/23 05:27:45;;;;;;;6.27;3.93;;;;;;;5.70;62.25;152824.59;5094039;28;20532;-82
2021/04/23 05:30:22;;;;;;;8.23;4.40;;;;;;;6.11;61.83;152930.44;5093609;28;20487;-81
2021/04/23 05:33:01;;;;;;;5.50;3.67;;;;;;;6.46;60.36;153019.47;5109538;27;20434;-82
2021/04/23 05:35:36;;;;;;;7.23;5.53;;;;;;;6.73;58.45;153090.41;5110658;27;20451;-82
2021/04/23 05:38:12;;;;;;;5.13;3.90;;;;;;;6.96;58.72;153148.53;5071115;28;20443;-83
2021/04/23 05:40:48;;;;;;;10.40;5.10;;;;;;;7.25;58.85;153223.38;5078454;28;20432;-83
2021/04/23 05:43:23;;;;;;;6.57;5.20;;;;;;;7.40;57.13;153260.84;5093042;28;20456;-83
2021/04/23 05:45:58;;;;;;;7.03;4.87;;;;;;;7.51;56.89;153289.28;5123126;27;20823;-83
2021/04/23 05:48:35;;;;;;;8.40;6.00;;;;;;;7.65;56.73;153324.16;5096278;27;20447;-84
2021/04/23 05:51:10;;;;;;;8.83;5.60;;;;;;;7.86;56.40;153378.41;5095197;28;20570;-83
2021/04/23 05:53:45;;;;;;;7.53;5.23;;;;;;;7.95;56.19;153402.94;5094437;28;20463;-84
2021/04/23 05:56:20;;;;;;;15.73;6.30;;;;;;;8.14;55.79;153450.75;5124898;27;20437;-83
2021/04/23 05:58:55;;;;;;;6.73;4.80;;;;;;;8.35;55.35;153505.06;5102471;28;20471;-83
2021/04/23 06:01:30;;;;;;;8.17;5.57;;;;;;;8.55;55.20;153555.50;5074184;28;20467;-84
2021/04/23 06:04:06;;;;;;;7.10;5.40;;;;;;;8.71;54.43;153595.56;5058667;28;20817;-83
2021/04/23 06:06:42;;;;;;;8.20;5.63;;;;;;;8.92;54.26;153649.88;5088593;28;20496;-84
2021/04/23 06:09:16;;;;;;;14.20;6.83;;;;;;;9.03;53.55;153678.28;5091785;28;20471;-84
2021/04/23 06:11:52;;;;;;;22.60;6.50;;;;;;;9.27;52.18;153739.06;5104533;28;20453;-83
2021/04/23 06:14:27;;;;;;;8.60;6.10;;;;;;;9.56;52.40;153815.41;5076017;28;20454;-84
2021/04/23 06:17:04;;;;;;;6.30;5.43;;;;;;;9.65;51.23;153838.72;5106698;28;20430;-84
2021/04/23 06:19:40;;;;;;;7.30;6.07;;;;;;;9.82;51.11;153882.69;5121121;27;20767;-84
2021/04/23 06:22:15;;;;;;;9.93;6.30;;;;;;;10.00;49.89;153928.00;5066021;28;20454;-84
2021/04/23 06:24:50;;;;;;;8.70;6.40;;;;;;;9.82;50.88;153882.69;5096392;28;20505;-84
2021/04/23 06:27:25;;;;;;;8.00;5.37;;;;;;;9.95;50.08;153915.06;5088694;28;20469;-84
2021/04/23 06:30:02;;;;;;;13.87;5.93;;;;;;;10.24;49.85;153988.88;5085045;28;20501;-85
2021/04/23 06:32:39;;;;;;;12.40;5.60;;;;;;;10.54;49.03;154066.53;5126715;27;20424;-85
2021/04/23 06:35:18;;;;;;;10.97;5.80;;;;;;;10.54;48.08;154065.28;5126540;27;20482;-85
2021/04/23 06:37:53;;;;;;;7.70;6.43;;;;;;;10.53;48.71;154063.97;5118185;27;20857;-86
2021/04/23 06:40:28;;;;;;;9.07;7.50;;;;;;;10.93;49.21;154167.53;5077256;28;20437;-85
2021/04/23 06:43:04;;;;;;;11.20;6.40;;;;;;;11.38;47.31;154281.56;5113552;27;20445;-85
2021/04/23 06:45:39;;;;;;;9.17;6.37;;;;;;;11.45;47.21;154299.69;5092461;28;20484;-86
2021/04/23 06:48:14;;;;;;;8.10;6.30;;;;;;;11.54;45.86;154323.03;5127313;27;20481;-86
2021/04/23 06:50:50;;;;;;;10.60;6.53;;;;;;;11.56;47.58;154329.50;5090390;28;20959;-86
2021/04/23 06:53:26;;;;;;;9.73;6.90;;;;;;;11.68;47.16;154359.28;5080712;28;20451;-85
2021/04/23 06:56:02;;;;;;;9.40;6.50;;;;;;;11.87;47.15;154408.56;5094630;28;20493;-85
2021/04/23 06:58:37;;;;;;;10.20;6.30;;;;;;;11.90;45.74;154416.38;5095610;28;20500;-85
2021/04/23 07:01:12;;;;;;;10.43;5.80;;;;;;;11.87;45.51;154407.28;5092788;28;20911;-85
2021/04/23 07:03:47;;;;;;;8.83;5.07;;;;;;;12.00;43.94;154442.28;5125783;27;20442;-85
2021/04/23 07:06:23;;;;;;;9.67;5.77;;;;;;;11.92;44.14;154421.53;5074093;28;20523;-85
2021/04/23 07:08:58;;;;;;;5.97;5.10;;;;;;;12.23;44.31;154501.91;5080521;28;20803;-85
2021/04/23 07:11:33;;;;;;;6.53;5.43;;;;;;;12.51;44.03;154571.94;5129121;28;20441;-86
2021/04/23 07:14:09;;;;;;;12.27;5.77;;;;;;;12.69;44.12;154618.63;5110464;28;20456;-86
2021/04/23 07:16:43;;;;;;;6.47;4.20;;;;;;;13.14;41.39;154734.09;5081373;28;20452;-85
2021/04/23 07:19:18;;;;;;;5.70;3.93;;;;;;;12.58;40.89;154590.06;5120324;28;20447;-86
2021/04/23 07:21:54;;;;;;;6.63;4.53;;;;;;;12.80;41.44;154647.16;5074181;28;20421;-86
2021/04/23 07:24:30;;;;;;;11.67;4.90;;;;;;;12.73;40.93;154629.00;5085373;28;20435;-86
2021/04/23 07:27:06;;;;;;;6.20;4.90;;;;;;;12.65;41.66;154608.25;5126268;28;21199;-86
2021/04/23 07:29:41;;;;;;;8.17;5.03;;;;;;;13.04;41.32;154709.44;5125999;28;20840;-86
2021/04/23 07:32:16;;;;;;;8.50;5.10;;;;;;;13.57;41.32;154845.72;5126244;28;20927;-86
2021/04/23 07:34:51;;;;;;;6.30;4.27;;;;;;;13.57;40.48;154844.41;5120122;27;20515;-86
2021/04/23 07:37:27;;;;;;;6.27;4.80;;;;;;;13.92;40.28;154935.28;5077314;28;20871;-86
2021/04/23 07:40:04;;;;;;;7.87;4.40;;;;;;;14.37;39.44;155052.19;5093637;28;20442;-86
2021/04/23 07:42:42;;;;;;;6.43;4.83;;;;;;;14.60;38.44;155111.94;5091767;28;20443;-85
2021/04/23 07:45:18;;;;;;;7.40;4.23;;;;;;;14.72;39.07;155140.50;5092919;28;20472;-86
2021/04/23 07:47:56;;;;;;;7.60;4.27;;;;;;;14.69;37.85;155132.72;5082860;28;21191;-87
2021/04/23 07:50:32;;;;;;;5.50;4.30;;;;;;;15.17;37.40;155257.41;5085594;28;20469;-87
2021/04/23 07:53:08;;;;;;;8.53;4.80;;;;;;;15.16;37.44;155256.13;5074569;28;20528;-87
2021/04/23 07:55:43;;;;;;;7.23;4.63;;;;;;;14.45;38.20;155072.97;5077459;28;20441;-87
2021/04/23 07:58:19;;;;;;;9.77;4.23;;;;;;;14.90;36.97;155187.28;5076267;28;20437;-86
2021/04/23 08:00:54;;;;;;;4.87;4.00;;;;;;;15.10;36.78;155239.22;5109406;28;20438;-86
2021/04/23 08:03:31;;;;;;;5.70;5.00;;;;;;;14.95;37.43;155201.56;5120300;27;20442;-86
2021/04/23 08:06:06;;;;;;;7.67;5.53;;;;;;;14.77;38.30;155154.81;5076496;28;20437;-87
2021/04/23 08:08:42;;;;;;;9.07;5.70;;;;;;;15.30;38.01;155291.22;5085884;28;20437;-86
2021/04/23 08:11:17;;;;;;;13.47;6.10;;;;;;;14.83;37.42;155169.06;5083321;28;20480;-85
2021/04/23 08:13:53;;;;;;;12.03;5.37;;;;;;;15.29;37.33;155288.63;5125622;27;20851;-85
2021/04/23 08:16:28;;;;;;;7.90;6.70;;;;;;;15.19;36.84;155262.63;5129609;27;20433;-85
2021/04/23 08:19:03;;;;;;;7.83;5.90;;;;;;;14.63;37.80;155118.41;5122054;27;20453;-86
2021/04/23 08:21:38;;;;;;;9.33;5.20;;;;;;;15.28;36.19;155286.00;5105653;28;20828;-86
2021/04/23 08:24:15;;;;;;;11.30;6.17;;;;;;;15.07;37.10;155231.41;5091210;28;20536;-87
2021/04/23 08:26:50;;;;;;;10.27;5.40;;;;;;;14.72;36.24;155140.50;5109762;27;20453;-88
2021/04/23 08:29:25;;;;;;;7.40;5.70;;;;;;;14.88;37.58;155183.34;5108381;28;20537;-86
2021/04/23 08:32:00;;;;;;;9.97;5.63;;;;;;;15.05;37.32;155226.22;5109027;28;20450;-85
2021/04/23 08:34:35;;;;;;;13.07;5.70;;;;;;;15.92;35.36;155449.81;5088568;28;20453;-84
2021/04/23 08:37:10;;;;;;;7.37;4.97;;;;;;;15.78;35.96;155414.72;5120296;27;20439;-84
2021/04/23 08:39:47;;;;;;;8.00;5.77;;;;;;;14.81;37.46;155165.19;5083626;28;20832;-87
2021/04/23 08:42:22;;;;;;;9.57;5.90;;;;;;;14.75;36.88;155148.25;5084034;28;20522;-85
2021/04/23 08:44:57;;;;;;;8.90;6.23;;;;;;;15.05;37.71;155226.22;5095654;28;20460;-84
2021/04/23 08:47:32;;;;;;;10.10;6.20;;;;;;;14.85;37.72;155174.28;5094918;28;20441;-85
2021/04/23 08:50:10;;;;;;;9.70;6.50;;;;;;;14.78;36.70;155157.38;5095560;28;20453;-85
2021/04/23 08:52:47;;;;;;;8.43;5.50;;;;;;;14.59;37.52;155108.00;5128960;27;20448;-85
2021/04/23 08:55:25;;;;;;;9.47;5.40;;;;;;;14.79;38.18;155158.69;5076591;28;20466;-85
2021/04/23 08:58:01;;;;;;;8.73;5.90;;;;;;;15.12;37.38;155244.41;5099869;27;20931;-86
2021/04/23 09:00:35;;;;;;;8.80;6.53;;;;;;;14.95;37.20;155201.56;5125645;27;20450;-84
2021/04/23 09:03:14;;;;;;;7.83;5.33;;;;;;;15.37;37.05;155309.41;5089167;28;20450;-84
2021/04/23 09:06:12;;;;;;;10.63;6.90;;;;;;;15.18;36.85;155260.00;5075530;28;20493;-84
2021/04/23 09:09:00;;;;;;;10.30;6.10;;;;;;;14.82;37.30;155166.47;5123683;27;20446;-85
2021/04/23 09:11:40;;;;;;;8.30;6.43;;;;;;;14.80;37.37;155162.56;5094015;28;20474;-85
2021/04/23 09:14:17;;;;;;;8.70;7.17;;;;;;;15.29;37.45;155288.63;5095523;28;20417;-86
2021/04/23 09:16:54;;;;;;;9.30;5.93;;;;;;;14.19;38.09;155005.34;5095171;28;20437;-85
2021/04/23 09:19:31;;;;;;;7.87;5.70;;;;;;;13.28;39.05;154770.44;5128601;27;20862;-85
2021/04/23 09:22:09;;;;;;;7.30;5.63;;;;;;;13.24;40.20;154761.34;5112746;27;20453;-85
2021/04/23 09:24:47;;;;;;;10.27;6.40;;;;;;;13.55;40.00;154840.53;5082824;28;20482;-85
2021/04/23 09:27:25;;;;;;;7.70;5.57;;;;;;;13.45;38.69;154813.28;5090070;28;20455;-84
2021/04/23 09:30:05;;;;;;;8.27;5.90;;;;;;;13.82;39.78;154910.59;5094660;28;20544;-85
2021/04/23 09:32:41;;;;;;;8.03;5.67;;;;;;;13.36;39.35;154792.53;5090548;28;20800;-84
2021/04/23 09:35:17;;;;;;;10.90;6.23;;;;;;;13.13;41.42;154732.78;5112102;27;20448;-84
2021/04/23 09:37:53;;;;;;;9.97;5.93;;;;;;;12.95;41.81;154686.06;5078042;28;20828;-84
2021/04/23 09:40:29;;;;;;;9.73;6.60;;;;;;;12.90;40.33;154673.09;5093664;28;20432;-84
2021/04/23 09:43:07;;;;;;;9.40;5.73;;;;;;;12.90;41.24;154671.78;5095142;28;20441;-84
2021/04/23 09:45:54;;;;;;;9.33;7.10;;;;;;;12.72;40.74;154627.72;5084624;28;20821;-84
2021/04/23 09:48:29;;;;;;;9.73;6.47;;;;;;;12.62;41.90;154601.78;5088639;28;20786;-84
2021/04/23 09:51:18;;;;;;;8.43;6.17;;;;;;;13.07;40.63;154717.25;5095210;28;20446;-85
2021/04/23 09:54:11;;;;;;;11.77;6.57;;;;;;;13.11;40.75;154727.63;5095589;28;20418;-84
2021/04/23 09:56:46;;;;;;;12.60;6.13;;;;;;;13.09;40.67;154722.44;5110367;28;20448;-83
2021/04/23 09:59:24;;;;;;;10.20;6.27;;;;;;;13.65;40.07;154866.50;5101895;28;20429;-83
2021/04/23 10:02:02;;;;;;;9.03;5.10;;;;;;;13.64;39.31;154862.56;5091986;28;20446;-84
2021/04/23 10:04:37;;;;;;;10.90;6.43;;;;;;;12.87;40.37;154665.28;5095532;28;20494;-83
2021/04/23 10:07:17;;;;;;;8.13;5.67;;;;;;;12.84;40.29;154658.81;5093658;28;20445;-84
2021/04/23 10:09:59;;;;;;;9.27;5.83;;;;;;;12.94;39.43;154682.19;5093300;28;20518;-83
2021/04/23 10:12:37;;;;;;;7.47;4.40;;;;;;;13.16;39.42;154740.59;5084333;28;20454;-84
2021/04/23 10:15:18;;;;;;;9.70;6.20;;;;;;;13.69;39.90;154875.53;5077602;28;20454;-84
2021/04/23 10:17:56;;;;;;;15.43;7.47;;;;;;;12.82;39.96;154652.31;5074559;28;20436;-84
2021/04/23 10:20:32;;;;;;;8.00;5.37;;;;;;;12.99;40.11;154696.47;5089598;28;20445;-85
2021/04/23 10:23:09;;;;;;;9.53;5.20;;;;;;;13.08;40.08;154719.81;5127161;27;20453;-85
2021/04/23 10:25:45;;;;;;;5.27;4.70;;;;;;;13.06;37.68;154714.59;5126806;27;20434;-85
2021/04/23 10:28:22;;;;;;;6.77;4.23;;;;;;;13.12;39.04;154728.94;5111669;27;20839;-85
2021/04/23 10:30:58;;;;;;;9.73;5.90;;;;;;;13.06;40.71;154713.28;5106704;28;20968;-85
2021/04/23 10:33:43;;;;;;;9.97;7.50;;;;;;;13.01;40.63;154701.63;5073843;28;20421;-85
2021/04/23 10:36:19;;;;;;;8.50;5.33;;;;;;;13.46;40.40;154815.84;5073950;28;20423;-85
2021/04/23 10:38:56;;;;;;;10.53;6.13;;;;;;;13.45;41.06;154814.53;5073649;28;20414;-85
2021/04/23 10:41:35;;;;;;;8.03;6.10;;;;;;;13.44;40.60;154811.97;5106177;28;20449;-85
2021/04/23 10:44:11;;;;;;;8.10;5.40;;;;;;;13.15;41.05;154736.72;5092615;28;20973;-85
2021/04/23 10:46:51;;;;;;;8.30;5.70;;;;;;;13.13;40.12;154731.53;5091340;28;20463;-85
2021/04/23 10:49:29;;;;;;;9.77;5.17;;;;;;;13.21;40.48;154753.56;5084605;28;20439;-85
2021/04/23 10:52:06;;;;;;;8.00;5.13;;;;;;;13.27;40.36;154767.84;5106727;28;20439;-85
2021/04/23 10:55:05;;;;;;;12.77;5.60;;;;;;;13.08;39.35;154719.81;5092637;28;20443;-85
2021/04/23 10:57:53;;;;;;;13.50;5.97;;;;;;;13.23;39.77;154758.78;5066690;28;20459;-85
2021/04/23 11:00:33;;;;;;;7.17;4.70;;;;;;;13.27;38.77;154769.13;5060375;28;20452;-84
2021/04/23 11:03:30;;;;;;;7.80;4.63;;;;;;;13.14;38.86;154734.09;5092079;28;20452;-83
2021/04/23 11:06:06;;;;;;;7.33;5.47;;;;;;;13.27;39.10;154769.13;5124802;28;20439;-83
2021/04/23 11:09:05;;;;;;;6.90;4.70;;;;;;;13.18;38.47;154745.81;5116588;28;20811;-84
2021/04/23 11:11:41;;;;;;;6.53;4.60;;;;;;;13.56;38.44;154841.78;5105633;28;20570;-84
2021/04/23 11:14:23;;;;;;;9.83;4.80;;;;;;;13.51;38.03;154828.81;5081614;28;20446;-84
2021/04/23 11:17:25;;;;;;;6.83;4.20;;;;;;;13.28;38.54;154771.75;5087105;28;20449;-84
2021/04/23 11:20:02;;;;;;;7.70;4.57;;;;;;;13.30;38.14;154776.94;5106087;28;20463;-84
2021/04/23 11:22:52;;;;;;;5.30;4.50;;;;;;;13.59;38.25;154849.59;5105706;28;20455;-84
2021/04/23 11:25:29;;;;;;;5.83;4.40;;;;;;;13.58;37.64;154848.28;5071465;28;20993;-83
2021/04/23 11:28:13;;;;;;;10.60;5.53;;;;;;;13.65;39.55;154866.50;5105886;28;20464;-83
2021/04/23 11:31:10;;;;;;;9.80;5.40;;;;;;;13.29;38.34;154774.31;5083123;28;20976;-83
2021/04/23 11:33:53;;;;;;;10.07;5.10;;;;;;;13.06;35.98;154714.59;5073105;28;20440;-84
2021/04/23 11:36:33;;;;;;;9.03;5.60;;;;;;;12.98;37.60;154693.84;5105909;28;20439;-83
2021/04/23 11:39:10;;;;;;;8.87;5.10;;;;;;;13.23;37.17;154758.78;5106149;28;20431;-83
2021/04/23 11:42:16;;;;;;;8.43;4.97;;;;;;;13.36;36.25;154792.53;5091968;28;20881;-83
2021/04/23 11:44:58;;;;;;;8.90;5.17;;;;;;;13.10;36.76;154725.06;5073116;28;20466;-83
2021/04/23 11:47:35;;;;;;;6.70;4.40;;;;;;;13.50;36.90;154826.25;5090891;28;20925;-83
2021/04/23 11:50:14;;;;;;;7.73;5.37;;;;;;;13.42;36.36;154808.06;5109331;28;20981;-85
2021/04/23 11:52:51;;;;;;;8.10;4.40;;;;;;;13.53;36.52;154834.06;5072980;28;20542;-85
2021/04/23 11:55:28;;;;;;;5.00;3.90;;;;;;;13.56;35.27;154843.09;5120384;28;20491;-85
2021/04/23 11:58:05;;;;;;;5.77;4.73;;;;;;;13.69;36.15;154875.53;5123599;28;20451;-85
2021/04/23 12:00:42;;;;;;;6.83;4.43;;;;;;;13.91;34.35;154932.66;5074890;28;20442;-86
2021/04/23 12:03:19;;;;;;;6.27;4.70;;;;;;;13.57;34.84;154844.41;5125929;28;20441;-85
2021/04/23 12:05:55;;;;;;;6.90;4.70;;;;;;;13.64;34.97;154863.88;5080140;28;20435;-85
2021/04/23 12:08:32;;;;;;;6.60;4.40;;;;;;;13.77;33.67;154896.31;5091649;28;20444;-85
2021/04/23 12:11:08;;;;;;;6.53;4.30;;;;;;;13.80;34.02;154904.09;5075864;28;20854;-84
2021/04/23 12:13:43;;;;;;;7.20;4.53;;;;;;;13.74;33.97;154888.56;5122576;28;20456;-85